createdAt,value
2022-09-06T00:00:02.767Z,62.50
2022-09-06T00:01:10.946Z,63.16
2022-09-06T00:02:12.657Z,62.94
2022-09-06T00:03:14.592Z,63.32
2022-09-06T00:04:16.438Z,63.01
2022-09-06T00:05:18.466Z,63.03
2022-09-06T00:06:20.896Z,63.08
2022-09-06T00:07:22.618Z,63.38
2022-09-06T00:08:24.353Z,62.74
2022-09-06T00:09:26.317Z,62.59
2022-09-06T00:10:29.268Z,62.63
2022-09-06T00:11:31.189Z,62.91
2022-09-06T00:12:33.367Z,63.26
2022-09-06T00:13:35.719Z,63.19
2022-09-06T00:14:37.608Z,63.35
2022-09-06T00:15:40.039Z,62.67
2022-09-06T00:16:41.941Z,63.05
2022-09-06T00:17:45.474Z,63.37
2022-09-06T00:18:47.411Z,63.59
2022-09-06T00:19:49.129Z,63.65
2022-09-06T00:20:50.858Z,63.81
2022-09-06T00:21:52.609Z,63.77
2022-09-06T00:23:02.836Z,63.46
2022-09-06T00:24:04.678Z,63.77
2022-09-06T00:25:07.643Z,63.60
2022-09-06T00:26:09.416Z,63.66
2022-09-06T00:27:11.158Z,63.46
2022-09-06T00:28:12.942Z,62.91
2022-09-06T00:29:14.666Z,63.01
2022-09-06T00:30:16.522Z,63.36
2022-09-06T00:31:21.300Z,63.48
2022-09-06T00:32:23.410Z,63.98
2022-09-06T00:33:25.330Z,63.87
2022-09-06T00:34:27.701Z,63.37
2022-09-06T00:35:29.767Z,63.41
2022-09-06T00:36:31.795Z,63.82
2022-09-06T00:37:33.499Z,63.31
2022-09-06T00:38:35.712Z,63.13
2022-09-06T00:39:37.430Z,63.42
2022-09-06T00:40:39.503Z,63.33
2022-09-06T00:41:41.240Z,62.93
2022-09-06T00:42:43.046Z,63.48
2022-09-06T00:43:45.067Z,63.42
2022-09-06T00:44:47.797Z,63.12
2022-09-06T00:45:49.820Z,62.88
2022-09-06T00:46:54.427Z,63.12
2022-09-06T00:47:58.501Z,63.43
2022-09-06T00:49:05.880Z,63.78
2022-09-06T00:50:08.872Z,63.83
2022-09-06T00:51:12.639Z,64.60
2022-09-06T00:52:16.968Z,65.02
2022-09-06T00:53:19.721Z,65.21
2022-09-06T00:54:21.943Z,64.85
2022-09-06T00:55:26.336Z,64.34
2022-09-06T00:56:28.734Z,64.32
2022-09-06T00:57:32.303Z,64.31
2022-09-06T00:58:34.557Z,64.16
2022-09-06T00:59:39.333Z,64.11
2022-09-06T01:00:41.230Z,63.78
2022-09-06T01:01:43.318Z,64.48
2022-09-06T01:02:45.427Z,63.62
2022-09-06T01:03:47.446Z,63.72
2022-09-06T01:04:49.878Z,63.64
2022-09-06T01:06:18.452Z,63.57
2022-09-06T01:07:23.364Z,63.88
2022-09-06T01:08:38.649Z,63.71
2022-09-06T01:10:19.100Z,64.04
2022-09-06T01:11:45.855Z,63.74
2022-09-06T01:13:25.547Z,63.78
2022-09-06T01:15:01.864Z,63.69
2022-09-06T01:16:22.069Z,63.47
2022-09-06T01:17:33.101Z,63.71
2022-09-06T01:18:46.763Z,63.78
2022-09-06T01:20:33.771Z,63.78
2022-09-06T01:21:52.547Z,63.79
2022-09-06T01:23:09.523Z,63.88
2022-09-06T01:25:02.201Z,63.82
2022-09-06T01:26:25.606Z,63.93
2022-09-06T01:27:44.582Z,64.01
2022-09-06T01:28:47.530Z,63.63
2022-09-06T01:30:02.228Z,63.91
2022-09-06T01:31:25.670Z,64.01
2022-09-06T01:32:50.522Z,64.16
2022-09-06T01:34:17.264Z,64.30
2022-09-06T01:35:33.997Z,64.09
2022-09-06T01:37:08.921Z,64.37
2022-09-06T01:38:11.592Z,64.51
2022-09-06T01:39:23.184Z,64.34
2022-09-06T01:40:25.033Z,64.72
2022-09-06T01:41:27.587Z,64.44
2022-09-06T01:42:33.258Z,64.71
2022-09-06T01:43:40.339Z,64.38
2022-09-06T01:44:51.972Z,64.31
2022-09-06T01:46:02.693Z,64.63
2022-09-06T01:47:16.428Z,64.85
2022-09-06T01:48:36.646Z,64.61
2022-09-06T01:50:02.964Z,64.95
2022-09-06T01:51:32.373Z,64.70
2022-09-06T01:52:42.928Z,64.63
2022-09-06T01:54:18.011Z,64.59
2022-09-06T01:55:38.184Z,64.94
2022-09-06T01:57:22.800Z,64.38
2022-09-06T01:58:58.643Z,64.71
2022-09-06T02:00:09.429Z,64.87
2022-09-06T02:01:19.440Z,64.72
2022-09-06T02:02:38.745Z,64.71
2022-09-06T02:03:52.758Z,64.23
2022-09-06T02:05:04.909Z,64.36
2022-09-06T02:06:22.477Z,64.55
2022-09-06T02:07:27.854Z,64.43
2022-09-06T02:08:47.380Z,64.55
2022-09-06T02:09:55.333Z,64.92
2022-09-06T02:11:07.334Z,64.60
2022-09-06T02:12:13.396Z,64.53
2022-09-06T02:13:18.371Z,64.65
2022-09-06T02:14:28.881Z,64.46
2022-09-06T02:15:35.120Z,64.88
2022-09-06T02:16:41.063Z,64.57
2022-09-06T02:17:53.713Z,64.52
2022-09-06T02:19:09.609Z,64.30
2022-09-06T02:20:24.917Z,63.80
2022-09-06T02:21:33.023Z,64.23
2022-09-06T02:22:40.307Z,64.11
2022-09-06T02:23:44.413Z,64.42
2022-09-06T02:24:50.291Z,63.84
2022-09-06T02:26:00.543Z,64.12
2022-09-06T02:27:02.271Z,64.13
2022-09-06T02:28:05.684Z,64.53
2022-09-06T02:29:08.065Z,64.67
2022-09-06T02:30:10.841Z,64.98
2022-09-06T02:31:24.208Z,64.70
2022-09-06T02:32:29.245Z,64.83
2022-09-06T02:33:33.399Z,64.77
2022-09-06T02:34:40.165Z,64.80
2022-09-06T02:35:45.115Z,64.73
2022-09-06T02:36:47.771Z,65.00
2022-09-06T02:37:50.127Z,65.10
2022-09-06T02:38:52.056Z,65.24
2022-09-06T02:39:56.156Z,64.97
2022-09-06T02:40:58.696Z,64.96
2022-09-06T02:42:01.767Z,64.79
2022-09-06T02:43:03.569Z,65.48
2022-09-06T02:44:05.369Z,65.63
2022-09-06T02:45:07.903Z,65.44
2022-09-06T02:46:10.003Z,65.71
2022-09-06T02:47:11.914Z,65.60
2022-09-06T02:48:14.638Z,65.52
2022-09-06T02:49:16.379Z,65.48
2022-09-06T02:50:18.267Z,65.55
2022-09-06T02:51:20.790Z,65.01
2022-09-06T02:52:22.537Z,65.97
2022-09-06T02:53:24.248Z,65.47
2022-09-06T02:54:26.178Z,65.59
2022-09-06T02:55:27.893Z,65.85
2022-09-06T02:56:29.633Z,65.52
2022-09-06T02:57:31.350Z,65.54
2022-09-06T02:58:33.065Z,65.70
2022-09-06T02:59:34.860Z,65.30
2022-09-06T03:00:37.628Z,65.31
2022-09-06T03:01:39.412Z,65.21
2022-09-06T03:02:41.190Z,65.64
2022-09-06T03:03:43.020Z,65.30
2022-09-06T03:04:44.967Z,65.21
2022-09-06T03:05:49.856Z,65.20
2022-09-06T03:06:51.607Z,65.20
2022-09-06T03:07:54.586Z,65.43
2022-09-06T03:08:56.399Z,65.10
2022-09-06T03:09:58.450Z,65.45
2022-09-06T03:11:01.031Z,65.11
2022-09-06T03:12:02.957Z,65.47
2022-09-06T03:13:04.678Z,65.77
2022-09-06T03:14:06.405Z,65.80
2022-09-06T03:15:08.633Z,65.54
2022-09-06T03:16:10.667Z,65.72
2022-09-06T03:17:12.455Z,65.42
2022-09-06T03:18:14.937Z,65.60
2022-09-06T03:19:18.058Z,65.20
2022-09-06T03:20:22.788Z,65.71
2022-09-06T03:21:24.731Z,65.93
2022-09-06T03:22:26.475Z,66.02
2022-09-06T03:23:29.812Z,66.10
2022-09-06T03:24:31.510Z,66.15
2022-09-06T03:25:33.441Z,65.93
2022-09-06T03:26:35.574Z,66.07
2022-09-06T03:27:38.284Z,66.16
2022-09-06T03:28:40.340Z,66.06
2022-09-06T03:29:42.070Z,66.23
2022-09-06T03:30:48.426Z,66.58
2022-09-06T03:31:50.281Z,66.90
2022-09-06T03:32:51.985Z,66.69
2022-09-06T03:33:53.702Z,66.75
2022-09-06T03:34:55.410Z,67.31
2022-09-06T03:36:00.560Z,67.11
2022-09-06T03:37:02.302Z,67.05
2022-09-06T03:38:04.040Z,66.95
2022-09-06T03:39:06.806Z,66.37
2022-09-06T03:40:09.411Z,66.16
2022-09-06T03:41:11.194Z,66.47
2022-09-06T03:42:12.937Z,66.91
2022-09-06T03:43:15.752Z,66.38
2022-09-06T03:44:17.458Z,66.73
2022-09-06T03:45:19.196Z,66.73
2022-09-06T03:46:21.011Z,66.73
2022-09-06T03:47:22.834Z,66.96
2022-09-06T03:48:26.841Z,67.16
2022-09-06T03:49:28.639Z,68.02
2022-09-06T03:50:30.380Z,68.24
2022-09-06T03:51:32.375Z,69.24
2022-09-06T03:52:34.173Z,70.12
2022-09-06T03:53:35.941Z,69.68
2022-09-06T03:54:37.754Z,69.76
2022-09-06T03:55:39.893Z,69.79
2022-09-06T03:56:41.632Z,69.11
2022-09-06T03:57:43.401Z,69.40
2022-09-06T03:58:45.331Z,68.77
2022-09-06T03:59:47.105Z,68.69
2022-09-06T04:00:48.982Z,68.73
2022-09-06T04:01:50.758Z,68.40
2022-09-06T04:02:52.480Z,68.48
2022-09-06T04:03:54.218Z,67.83
2022-09-06T04:04:56.003Z,68.66
2022-09-06T04:05:57.982Z,68.15
2022-09-06T04:06:59.743Z,68.50
2022-09-06T04:08:02.492Z,68.01
2022-09-06T04:09:04.763Z,68.33
2022-09-06T04:10:07.134Z,68.21
2022-09-06T04:11:08.927Z,68.62
2022-09-06T04:12:10.656Z,67.97
2022-09-06T04:13:12.378Z,68.16
2022-09-06T04:14:14.342Z,68.17
2022-09-06T04:15:16.211Z,68.09
2022-09-06T04:16:18.840Z,68.12
2022-09-06T04:17:20.687Z,68.10
2022-09-06T04:18:22.893Z,67.92
2022-09-06T04:19:24.667Z,68.04
2022-09-06T04:20:26.585Z,67.64
2022-09-06T04:21:28.394Z,67.43
2022-09-06T04:22:30.600Z,67.13
2022-09-06T04:23:34.338Z,67.21
2022-09-06T04:24:39.462Z,66.82
2022-09-06T04:25:41.240Z,66.28
2022-09-06T04:26:42.976Z,65.86
2022-09-06T04:27:44.685Z,65.84
2022-09-06T04:28:46.573Z,66.06
2022-09-06T04:29:48.360Z,66.20
2022-09-06T04:31:04.713Z,65.31
2022-09-06T04:32:07.121Z,65.01
2022-09-06T04:33:08.947Z,65.53
2022-09-06T04:34:10.906Z,65.11
2022-09-06T04:35:12.623Z,63.95
2022-09-06T04:36:14.343Z,63.65
2022-09-06T04:37:20.137Z,63.89
2022-09-06T04:38:22.126Z,63.41
2022-09-06T04:39:24.375Z,63.31
2022-09-06T04:40:26.161Z,63.38
2022-09-06T04:41:27.939Z,62.93
2022-09-06T04:42:29.959Z,61.45
2022-09-06T04:43:32.274Z,62.03
2022-09-06T04:44:33.993Z,61.03
2022-09-06T04:45:35.776Z,60.48
2022-09-06T04:46:37.604Z,60.49
2022-09-06T04:47:39.324Z,59.79
2022-09-06T04:48:41.159Z,59.59
2022-09-06T04:49:43.229Z,58.30
2022-09-06T04:50:45.144Z,57.83
2022-09-06T04:51:46.900Z,57.96
2022-09-06T04:52:48.788Z,58.29
2022-09-06T04:53:51.156Z,57.52
2022-09-06T04:54:52.879Z,56.88
2022-09-06T04:55:57.784Z,55.50
2022-09-06T04:56:59.517Z,55.98
2022-09-06T04:58:01.826Z,55.68
2022-09-06T04:59:03.615Z,55.36
2022-09-06T05:00:06.288Z,54.05
2022-09-06T05:01:08.066Z,54.22
2022-09-06T05:02:09.878Z,51.92
2022-09-06T05:03:11.625Z,52.69
2022-09-06T05:04:13.350Z,51.22
2022-09-06T05:05:15.255Z,50.65
2022-09-06T05:06:23.204Z,50.95
2022-09-06T05:07:24.972Z,50.15
2022-09-06T05:08:26.930Z,49.34
2022-09-06T05:09:28.812Z,49.68
2022-09-06T05:10:31.092Z,48.33
2022-09-06T05:11:32.876Z,48.45
2022-09-06T05:12:35.086Z,46.90
2022-09-06T05:13:36.981Z,46.58
2022-09-06T05:14:38.688Z,45.92
2022-09-06T05:15:40.467Z,46.05
2022-09-06T05:16:42.343Z,46.54
2022-09-06T05:17:44.331Z,45.06
2022-09-06T05:18:46.169Z,44.49
2022-09-06T05:19:48.542Z,44.25
2022-09-06T05:20:53.933Z,43.96
2022-09-06T05:21:55.639Z,44.46
2022-09-06T05:22:57.429Z,43.15
2022-09-06T05:23:59.211Z,41.88
2022-09-06T05:25:01.173Z,42.40
2022-09-06T05:26:03.801Z,41.57
2022-09-06T05:27:05.666Z,41.43
2022-09-06T05:28:07.509Z,40.67
2022-09-06T05:29:09.276Z,40.97
2022-09-06T05:30:11.535Z,40.93
2022-09-06T05:31:33.719Z,40.66
2022-09-06T05:32:35.493Z,40.76
2022-09-06T05:33:37.807Z,40.30
2022-09-06T05:34:39.527Z,40.60
2022-09-06T05:35:41.271Z,40.25
2022-09-06T05:36:43.054Z,38.76
2022-09-06T05:37:44.874Z,38.47
2022-09-06T05:38:46.630Z,37.88
2022-09-06T05:39:48.430Z,38.11
2022-09-06T05:40:50.583Z,37.91
2022-09-06T05:41:52.357Z,37.46
2022-09-06T05:42:54.180Z,38.67
2022-09-06T05:43:55.928Z,37.54
2022-09-06T05:44:57.834Z,37.60
2022-09-06T05:45:59.636Z,37.30
2022-09-06T05:47:01.671Z,37.16
2022-09-06T05:48:03.705Z,36.93
2022-09-06T05:49:08.061Z,36.88
2022-09-06T05:50:10.490Z,36.45
2022-09-06T05:51:13.561Z,36.03
2022-09-06T05:52:15.336Z,36.03
2022-09-06T05:53:17.053Z,36.00
2022-09-06T05:54:18.944Z,35.80
2022-09-06T05:55:20.673Z,36.39
2022-09-06T05:56:22.740Z,36.20
2022-09-06T05:57:24.631Z,36.70
2022-09-06T05:58:26.463Z,36.88
2022-09-06T05:59:28.314Z,36.85
2022-09-06T06:00:30.095Z,36.68
2022-09-06T06:01:31.935Z,35.56
2022-09-06T06:02:33.780Z,36.20
2022-09-06T06:03:35.598Z,36.05
2022-09-06T06:04:37.655Z,36.57
2022-09-06T06:05:39.411Z,36.70
2022-09-06T06:06:41.138Z,35.89
2022-09-06T06:07:43.048Z,36.06
2022-09-06T06:08:44.932Z,35.41
2022-09-06T06:09:46.683Z,35.88
2022-09-06T06:10:48.396Z,35.77
2022-09-06T06:11:50.095Z,36.40
2022-09-06T06:12:51.792Z,35.69
2022-09-06T06:13:55.051Z,35.75
2022-09-06T06:14:57.023Z,34.48
2022-09-06T06:15:58.766Z,35.54
2022-09-06T06:17:00.617Z,35.21
2022-09-06T06:18:02.394Z,35.49
2022-09-06T06:19:04.103Z,34.04
2022-09-06T06:20:06.351Z,33.96
2022-09-06T06:21:10.960Z,33.69
2022-09-06T06:22:12.737Z,33.83
2022-09-06T06:23:15.762Z,33.37
2022-09-06T06:24:17.486Z,33.90
2022-09-06T06:25:23.205Z,34.16
2022-09-06T06:26:26.629Z,33.28
2022-09-06T06:27:28.425Z,32.85
2022-09-06T06:28:30.199Z,33.13
2022-09-06T06:29:31.921Z,32.76
2022-09-06T06:30:33.680Z,32.72
2022-09-06T06:31:37.198Z,32.93
2022-09-06T06:32:38.971Z,32.74
2022-09-06T06:33:41.157Z,32.49
2022-09-06T06:34:42.923Z,32.05
2022-09-06T06:36:02.656Z,32.34
2022-09-06T06:37:04.453Z,32.75
2022-09-06T06:38:06.169Z,32.38
2022-09-06T06:39:08.794Z,31.33
2022-09-06T06:40:10.796Z,31.63
2022-09-06T06:41:15.417Z,31.63
2022-09-06T06:42:17.189Z,31.60
2022-09-06T06:43:18.934Z,32.21
2022-09-06T06:44:20.671Z,32.20
2022-09-06T06:45:22.435Z,30.59
2022-09-06T06:46:26.953Z,31.51
2022-09-06T06:47:28.670Z,31.21
2022-09-06T06:48:30.670Z,30.94
2022-09-06T06:49:32.780Z,31.44
2022-09-06T06:50:34.490Z,30.47
2022-09-06T06:51:39.640Z,31.00
2022-09-06T06:52:41.389Z,29.94
2022-09-06T06:53:47.723Z,29.58
2022-09-06T06:54:50.227Z,29.63
2022-09-06T06:55:52.013Z,30.21
2022-09-06T06:56:54.056Z,30.99
2022-09-06T06:57:56.021Z,29.97
2022-09-06T06:59:00.220Z,30.39
2022-09-06T07:00:04.570Z,30.71
2022-09-06T07:01:06.983Z,30.23
2022-09-06T07:02:08.882Z,31.05
2022-09-06T07:03:12.111Z,30.37
2022-09-06T07:04:14.388Z,29.77
2022-09-06T07:08:14.978Z,29.04
2022-09-06T07:09:18.662Z,28.10
2022-09-06T07:10:35.788Z,28.17
2022-09-06T07:11:38.490Z,28.21
2022-09-06T07:12:40.302Z,27.18
2022-09-06T07:13:42.355Z,27.86
2022-09-06T07:14:44.051Z,27.22
2022-09-06T07:15:45.760Z,26.34
2022-09-06T07:16:47.709Z,28.83
2022-09-06T07:17:49.577Z,28.21
2022-09-06T07:18:52.831Z,28.63
2022-09-06T07:22:41.040Z,26.95
2022-09-06T07:25:06.807Z,28.15
2022-09-06T07:26:13.612Z,27.87
2022-09-06T07:28:37.257Z,27.37
2022-09-06T07:29:38.979Z,28.43
2022-09-06T07:30:42.162Z,29.15
2022-09-06T07:33:05.657Z,29.39
2022-09-06T07:34:07.384Z,29.46
2022-09-06T07:35:09.462Z,28.20
2022-09-06T07:36:11.653Z,29.10
2022-09-06T07:37:13.439Z,27.63
2022-09-06T07:38:15.201Z,29.30
2022-09-06T07:39:16.913Z,28.55
2022-09-06T07:40:18.751Z,28.22
2022-09-06T07:41:21.138Z,27.67
2022-09-06T07:42:22.905Z,27.02
2022-09-06T07:43:25.566Z,28.45
2022-09-06T07:44:28.939Z,28.43
2022-09-06T07:45:30.727Z,26.77
2022-09-06T07:46:32.522Z,27.03
2022-09-06T07:48:56.025Z,26.54
2022-09-06T07:51:21.624Z,28.26
2022-09-06T07:53:57.907Z,28.07
2022-09-06T07:55:04.615Z,27.02
2022-09-06T07:56:08.621Z,27.61
2022-09-06T07:57:12.220Z,27.47
2022-09-06T07:58:14.059Z,27.10
2022-09-06T07:59:15.823Z,26.78
2022-09-06T08:00:18.718Z,25.71
2022-09-06T08:01:34.511Z,26.05
2022-09-06T08:02:36.226Z,26.79
2022-09-06T08:03:37.932Z,27.21
2022-09-06T08:04:41.305Z,26.49
2022-09-06T08:09:48.220Z,25.31
2022-09-06T08:10:51.191Z,25.84
2022-09-06T08:11:53.131Z,25.73
2022-09-06T08:12:57.750Z,25.76
2022-09-06T08:14:01.282Z,27.78
2022-09-06T08:15:03.005Z,28.96
2022-09-06T08:16:10.606Z,29.13
2022-09-06T08:17:12.642Z,29.27
2022-09-06T08:18:14.422Z,28.87
2022-09-06T08:19:17.111Z,31.45
2022-09-06T08:20:18.895Z,30.42
2022-09-06T08:21:21.214Z,29.69
2022-09-06T08:22:22.915Z,29.30
2022-09-06T08:23:24.676Z,28.18
2022-09-06T08:24:26.615Z,28.34
2022-09-06T08:25:28.329Z,27.71
2022-09-06T08:26:32.207Z,27.96
2022-09-06T08:27:34.339Z,28.38
2022-09-06T08:28:36.647Z,28.24
2022-09-06T08:29:39.993Z,27.66
2022-09-06T08:30:41.748Z,28.57
2022-09-06T08:31:45.033Z,26.57
2022-09-06T08:32:46.919Z,28.17
2022-09-06T08:33:48.658Z,28.27
2022-09-06T08:34:50.852Z,29.17
2022-09-06T08:35:59.332Z,28.69
2022-09-06T08:37:01.103Z,27.82
2022-09-06T08:38:02.808Z,28.81
2022-09-06T08:39:11.855Z,29.50
2022-09-06T08:40:21.434Z,29.92
2022-09-06T08:41:27.669Z,29.90
2022-09-06T08:42:31.521Z,28.11
2022-09-06T08:43:33.486Z,28.03
2022-09-06T08:45:00.784Z,27.53
2022-09-06T08:46:03.465Z,27.34
2022-09-06T08:47:07.981Z,28.10
2022-09-06T08:48:09.819Z,27.46
2022-09-06T08:49:12.421Z,25.21
2022-09-06T08:50:14.167Z,25.24
2022-09-06T08:51:46.884Z,26.76
2022-09-06T08:53:19.117Z,27.95
2022-09-06T08:54:58.281Z,29.36
2022-09-06T08:56:13.626Z,30.05
2022-09-06T08:57:40.456Z,30.31
2022-09-06T08:59:06.771Z,28.92
2022-09-06T09:00:12.607Z,30.20
2022-09-06T09:01:27.709Z,30.76
2022-09-06T09:02:41.869Z,30.46
2022-09-06T09:03:44.938Z,31.50
2022-09-06T09:04:56.241Z,29.33
2022-09-06T09:06:00.256Z,29.80
2022-09-06T09:07:33.111Z,32.14
2022-09-06T09:09:04.107Z,29.59
2022-09-06T09:10:40.678Z,31.05
2022-09-06T09:11:50.018Z,31.49
2022-09-06T09:12:51.758Z,32.20
2022-09-06T09:13:56.075Z,34.06
2022-09-06T09:15:05.581Z,34.72
2022-09-06T09:16:07.908Z,32.72
2022-09-06T09:17:20.555Z,31.80
2022-09-06T09:18:30.192Z,33.84
2022-09-06T09:19:36.747Z,31.88
2022-09-06T09:20:39.316Z,32.33
2022-09-06T09:21:41.151Z,32.14
2022-09-06T09:22:43.829Z,29.93
2022-09-06T09:23:54.118Z,31.32
2022-09-06T09:24:59.426Z,30.27
2022-09-06T09:26:09.903Z,29.54
2022-09-06T09:27:14.008Z,29.55
2022-09-06T09:28:19.106Z,29.57
2022-09-06T09:29:25.324Z,30.54
2022-09-06T09:30:56.816Z,28.28
2022-09-06T09:31:58.659Z,29.58
2022-09-06T09:33:00.686Z,27.86
2022-09-06T09:34:04.918Z,29.67
2022-09-06T09:35:27.421Z,29.38
2022-09-06T09:36:29.155Z,29.28
2022-09-06T09:37:46.997Z,27.88
2022-09-06T09:38:51.847Z,27.36
2022-09-06T09:39:55.906Z,28.65
2022-09-06T09:41:05.866Z,26.80
2022-09-06T09:42:09.377Z,27.67
2022-09-06T09:43:15.967Z,27.25
2022-09-06T09:44:19.961Z,28.25
2022-09-06T09:45:31.330Z,27.56
2022-09-06T09:46:39.278Z,26.95
2022-09-06T09:47:41.037Z,27.12
2022-09-06T09:49:07.702Z,28.08
2022-09-06T09:50:25.012Z,26.20
2022-09-06T09:51:27.814Z,28.38
2022-09-06T09:52:32.083Z,27.34
2022-09-06T09:53:33.844Z,27.69
2022-09-06T09:54:39.234Z,25.13
2022-09-06T09:55:42.563Z,25.34
2022-09-06T09:56:49.513Z,25.85
2022-09-06T09:57:54.359Z,24.93
2022-09-06T09:58:58.350Z,25.62
2022-09-06T10:00:06.609Z,25.74
2022-09-06T10:01:30.801Z,25.10
2022-09-06T10:02:40.737Z,25.75
2022-09-06T10:05:10.111Z,25.75
2022-09-06T10:07:44.064Z,25.14
2022-09-06T10:08:45.827Z,26.19
2022-09-06T10:09:50.171Z,25.55
2022-09-06T10:10:52.100Z,24.77
2022-09-06T10:11:58.290Z,25.08
2022-09-06T10:13:14.757Z,27.95
2022-09-06T10:14:28.021Z,26.65
2022-09-06T10:15:34.290Z,25.92
2022-09-06T10:16:45.800Z,25.73
2022-09-06T10:17:48.836Z,25.31
2022-09-06T10:18:53.114Z,24.80
2022-09-06T10:19:54.959Z,24.66
2022-09-06T10:21:06.164Z,27.30
2022-09-06T10:22:20.250Z,25.43
2022-09-06T10:24:57.267Z,25.44
2022-09-06T10:26:31.404Z,24.01
2022-09-06T10:27:33.461Z,26.53
2022-09-06T10:28:39.200Z,26.05
2022-09-06T10:29:40.908Z,25.46
2022-09-06T10:31:16.164Z,27.16
2022-09-06T10:33:09.929Z,25.87
2022-09-06T10:34:35.712Z,27.51
2022-09-06T10:35:38.490Z,26.36
2022-09-06T10:36:48.349Z,25.75
2022-09-06T10:38:01.845Z,28.22
2022-09-06T10:39:40.907Z,27.23
2022-09-06T10:40:51.321Z,26.61
2022-09-06T10:42:08.574Z,28.41
2022-09-06T10:43:18.612Z,26.84
2022-09-06T10:44:28.973Z,25.30
2022-09-06T10:45:46.712Z,25.12
2022-09-06T10:46:55.604Z,25.75
2022-09-06T10:48:14.942Z,25.01
2022-09-06T10:49:20.004Z,26.31
2022-09-06T10:50:29.044Z,26.83
2022-09-06T10:51:50.201Z,26.46
2022-09-06T10:52:53.686Z,26.44
2022-09-06T10:54:01.902Z,28.82
2022-09-06T10:55:05.854Z,27.08
2022-09-06T10:56:17.059Z,30.43
2022-09-06T11:00:17.347Z,28.48
2022-09-06T11:01:42.049Z,29.82
2022-09-06T11:04:31.565Z,28.67
2022-09-06T11:05:44.930Z,27.50
2022-09-06T11:06:52.805Z,26.76
2022-09-06T11:09:26.086Z,27.29
2022-09-06T11:10:31.434Z,26.48
2022-09-06T11:11:40.495Z,26.60
2022-09-06T11:13:06.735Z,27.86
2022-09-06T11:14:13.613Z,27.92
2022-09-06T11:15:18.212Z,27.84
2022-09-06T11:16:39.679Z,29.74
2022-09-06T11:17:59.793Z,28.66
2022-09-06T11:19:07.895Z,28.15
2022-09-06T11:21:05.298Z,27.78
2022-09-06T11:22:19.209Z,27.80
2022-09-06T11:23:23.711Z,28.58
2022-09-06T11:24:37.360Z,26.17
2022-09-06T11:25:51.317Z,26.52
2022-09-06T11:27:13.108Z,26.01
2022-09-06T11:28:30.725Z,26.32
2022-09-06T11:29:34.921Z,24.89
2022-09-06T11:30:37.273Z,26.06
2022-09-06T11:33:30.460Z,25.56
2022-09-06T11:34:35.350Z,25.14
2022-09-06T11:35:37.946Z,24.84
2022-09-06T11:36:45.445Z,25.75
2022-09-06T11:37:51.188Z,26.38
2022-09-06T11:39:02.054Z,25.35
2022-09-06T11:41:40.951Z,24.50
2022-09-06T11:42:45.591Z,25.45
2022-09-06T11:43:51.866Z,24.39
2022-09-06T11:45:21.289Z,25.13
2022-09-06T11:46:44.443Z,26.18
2022-09-06T11:47:48.623Z,26.95
2022-09-06T11:49:03.536Z,28.40
2022-09-06T11:50:20.765Z,28.50
2022-09-06T11:51:35.351Z,28.48
2022-09-06T11:52:55.634Z,27.58
2022-09-06T11:53:57.922Z,29.04
2022-09-06T11:54:59.757Z,27.81
2022-09-06T11:56:01.498Z,26.84
2022-09-06T11:57:16.809Z,27.95
2022-09-06T11:58:18.532Z,28.84
2022-09-06T11:59:34.108Z,28.43
2022-09-06T12:00:36.005Z,29.09
2022-09-06T12:01:41.028Z,29.85
2022-09-06T12:02:45.134Z,29.21
2022-09-06T12:04:06.594Z,29.19
2022-09-06T12:05:16.797Z,31.55
2022-09-06T12:06:27.936Z,30.70
2022-09-06T12:07:32.111Z,31.92
2022-09-06T12:08:34.512Z,31.18
2022-09-06T12:09:46.425Z,30.58
2022-09-06T12:11:01.104Z,30.98
2022-09-06T12:12:03.894Z,30.85
2022-09-06T12:13:39.808Z,29.35
2022-09-06T12:14:46.236Z,28.56
2022-09-06T12:15:55.421Z,28.78
2022-09-06T12:17:07.253Z,30.06
2022-09-06T12:18:09.057Z,29.00
2022-09-06T12:19:44.516Z,28.55
2022-09-06T12:20:49.287Z,30.19
2022-09-06T12:21:52.527Z,29.94
2022-09-06T12:22:55.030Z,28.33
2022-09-06T12:23:56.850Z,28.53
2022-09-06T12:25:26.457Z,28.22
2022-09-06T12:26:55.903Z,28.47
2022-09-06T12:28:00.481Z,28.66
2022-09-06T12:29:10.824Z,30.02
2022-09-06T12:30:14.205Z,30.88
2022-09-06T12:31:25.183Z,29.69
2022-09-06T12:32:44.531Z,29.67
2022-09-06T12:33:48.210Z,30.37
2022-09-06T12:36:24.182Z,30.81
2022-09-06T12:37:37.281Z,30.52
2022-09-06T12:38:39.095Z,31.08
2022-09-06T12:39:58.414Z,31.07
2022-09-06T12:41:01.329Z,31.65
2022-09-06T12:42:06.765Z,29.85
2022-09-06T12:43:11.263Z,31.39
2022-09-06T12:44:15.916Z,31.98
2022-09-06T12:45:26.663Z,31.24
2022-09-06T12:46:31.100Z,31.69
2022-09-06T12:47:35.864Z,31.48
2022-09-06T12:48:41.511Z,32.03
2022-09-06T12:49:43.283Z,30.87
2022-09-06T12:50:45.053Z,31.11
2022-09-06T12:51:47.630Z,31.74
2022-09-06T12:52:56.907Z,31.37
2022-09-06T12:54:22.075Z,32.63
2022-09-06T12:55:33.891Z,31.39
2022-09-06T12:56:35.701Z,31.74
2022-09-06T12:57:37.449Z,31.26
2022-09-06T12:58:39.753Z,32.34
2022-09-06T13:00:07.679Z,32.32
2022-09-06T13:01:23.234Z,33.28
2022-09-06T13:02:31.856Z,31.65
2022-09-06T13:04:05.228Z,31.00
2022-09-06T13:05:12.009Z,31.37
2022-09-06T13:06:26.628Z,32.00
2022-09-06T13:07:29.465Z,30.61
2022-09-06T13:08:35.143Z,30.98
2022-09-06T13:09:39.761Z,30.87
2022-09-06T13:10:45.248Z,31.73
2022-09-06T13:11:51.639Z,32.06
2022-09-06T13:12:56.432Z,31.60
2022-09-06T13:13:58.983Z,31.95
2022-09-06T13:15:14.713Z,31.03
2022-09-06T13:16:23.001Z,31.38
2022-09-06T13:17:27.267Z,32.35
2022-09-06T13:18:38.095Z,30.46
2022-09-06T13:19:42.168Z,30.51
2022-09-06T13:20:43.989Z,29.70
2022-09-06T13:21:47.133Z,30.94
2022-09-06T13:22:51.030Z,30.07
2022-09-06T13:23:53.188Z,30.61
2022-09-06T13:24:56.642Z,30.92
2022-09-06T13:25:58.545Z,31.21
2022-09-06T13:27:00.295Z,30.95
2022-09-06T13:28:03.452Z,30.26
2022-09-06T13:29:22.174Z,31.10
2022-09-06T13:30:49.643Z,30.82
2022-09-06T13:31:57.105Z,30.50
2022-09-06T13:32:59.472Z,31.08
2022-09-06T13:34:01.258Z,31.57
2022-09-06T13:35:04.045Z,30.16
2022-09-06T13:36:11.930Z,31.45
2022-09-06T13:37:14.239Z,30.42
2022-09-06T13:38:31.244Z,31.36
2022-09-06T13:39:41.993Z,31.70
2022-09-06T13:41:09.650Z,31.66
2022-09-06T13:42:07.633Z,31.12
2022-09-06T13:43:12.420Z,32.26
2022-09-06T13:44:20.713Z,31.40
2022-09-06T13:45:28.574Z,31.30
2022-09-06T13:46:34.415Z,30.68
2022-09-06T13:47:36.178Z,31.59
2022-09-06T13:48:39.708Z,30.97
2022-09-06T13:49:41.641Z,31.82
2022-09-06T13:50:43.421Z,32.97
2022-09-06T13:51:45.177Z,31.30
2022-09-06T13:52:46.912Z,31.17
2022-09-06T13:53:49.123Z,29.92
2022-09-06T13:54:50.899Z,30.84
2022-09-06T13:55:53.051Z,30.32
2022-09-06T13:56:55.606Z,31.21
2022-09-06T13:57:57.319Z,31.27
2022-09-06T13:58:59.130Z,31.48
2022-09-06T14:00:00.983Z,30.70
2022-09-06T14:01:04.262Z,31.30
2022-09-06T14:02:10.051Z,31.59
2022-09-06T14:03:22.694Z,31.17
2022-09-06T14:04:25.619Z,31.85
2022-09-06T14:05:27.309Z,31.96
2022-09-06T14:06:30.674Z,31.92
2022-09-06T14:07:35.459Z,31.13
2022-09-06T14:08:56.240Z,31.24
2022-09-06T14:10:01.277Z,32.20
2022-09-06T14:11:03.023Z,31.70
2022-09-06T14:12:06.801Z,31.30
2022-09-06T14:13:08.736Z,32.19
2022-09-06T14:14:11.054Z,32.54
2022-09-06T14:15:13.492Z,33.00
2022-09-06T14:16:15.510Z,32.70
2022-09-06T14:17:17.905Z,33.54
2022-09-06T14:18:19.643Z,33.04
2022-09-06T14:19:21.421Z,32.99
2022-09-06T14:20:23.166Z,33.17
2022-09-06T14:21:24.971Z,32.63
2022-09-06T14:22:26.746Z,32.21
2022-09-06T14:23:28.658Z,32.68
2022-09-06T14:24:30.606Z,32.67
2022-09-06T14:25:35.827Z,32.03
2022-09-06T14:26:39.044Z,32.72
2022-09-06T14:27:40.883Z,32.93
2022-09-06T14:28:42.717Z,32.79
2022-09-06T14:29:44.471Z,33.03
2022-09-06T14:30:46.394Z,33.18
2022-09-06T14:31:49.125Z,33.25
2022-09-06T14:32:51.085Z,32.58
2022-09-06T14:33:54.430Z,33.34
2022-09-06T14:34:56.173Z,33.08
2022-09-06T14:35:57.890Z,33.50
2022-09-06T14:36:59.698Z,32.93
2022-09-06T14:38:01.612Z,32.40
2022-09-06T14:39:03.987Z,33.86
2022-09-06T14:40:06.509Z,33.85
2022-09-06T14:41:09.506Z,33.81
2022-09-06T14:42:11.551Z,33.56
2022-09-06T14:43:13.407Z,33.81
2022-09-06T14:44:15.208Z,35.01
2022-09-06T14:45:17.191Z,34.63
2022-09-06T14:46:20.672Z,34.30
2022-09-06T14:47:22.453Z,33.62